Terminal Aerodrome Forecast
Issued by NWS Houston/Galveston, TX

Current Version | Previous Version | Text Only | Print | Product List | Glossary Off
Versions: 1 2 3 4 5 6 7 8 9 10 11 12 13 14 15 16 17 18 19 20 21 22

000
FTUS44 KHGX 301342 AAA
TAFCLL
TAF AMD
KCLL 301342Z 3014/3112 01007KT P6SM FEW050
     FM301500 04004KT P6SM SCT025 SCT150
     FM301800 06007KT P6SM SCT040 SCT080 BKN250
     FM310300 02002KT P6SM SCT250=

USA.gov is the U.S. government's official web portal to all federal, state and local government web resources and services.